Time;durP1;ratioP1;P1;durP2;ratioP2;P2;SDS_P1;SDS_P2;PMS_P1;PMS_P2;Temp;Humidity;BMP_temperature;BMP_pressure;BME280_temperature;BME280_humidity;BME280_pressure;Samples;Min_cycle;Max_cycle;Signal;HPM_P1;HPM_P2
2021/08/17 00:02:10;;;;;;;9.52;2.72;;;;;;;12.72;100.00;101586.66;2615038;36;20106;-63
2021/08/17 00:04:38;;;;;;;12.10;2.95;;;;;;;12.71;100.00;101597.59;2615797;36;20050;-62
2021/08/17 00:07:06;;;;;;;7.95;3.10;;;;;;;12.60;100.00;101591.25;2616482;36;20129;-63
2021/08/17 00:09:35;;;;;;;10.90;2.85;;;;;;;12.55;100.00;101593.50;2614060;31;20702;-63
2021/08/17 00:12:06;;;;;;;16.73;3.30;;;;;;;12.48;100.00;101589.59;2613914;36;20620;-63
2021/08/17 00:14:34;;;;;;;10.32;2.50;;;;;;;12.44;100.00;101588.16;2616132;36;20607;-63
2021/08/17 00:17:03;;;;;;;10.65;2.75;;;;;;;12.43;100.00;101591.84;2616837;31;20472;-63
2021/08/17 00:19:31;;;;;;;11.23;3.05;;;;;;;12.43;100.00;101598.09;2616241;36;20026;-63
2021/08/17 00:21:59;;;;;;;13.50;2.38;;;;;;;12.33;100.00;101593.59;2615511;36;20634;-63
2021/08/17 00:24:27;;;;;;;12.77;2.40;;;;;;;12.25;100.00;101597.81;2615675;36;20158;-63
2021/08/17 00:26:56;;;;;;;10.13;2.25;;;;;;;12.30;100.00;101591.16;2615492;36;20178;-63
2021/08/17 00:29:26;;;;;;;9.27;2.38;;;;;;;12.26;100.00;101591.44;2614773;36;20162;-63
2021/08/17 00:31:54;;;;;;;11.50;3.08;;;;;;;12.22;100.00;101587.28;2616166;36;20089;-63
2021/08/17 00:34:23;;;;;;;14.77;3.22;;;;;;;12.20;100.00;101594.63;2615519;36;20169;-63
2021/08/17 00:36:51;;;;;;;12.18;3.17;;;;;;;12.19;100.00;101589.34;2616505;36;20129;-63
2021/08/17 00:39:19;;;;;;;11.82;2.92;;;;;;;12.19;100.00;101581.25;2615689;36;20138;-63
2021/08/17 00:41:48;;;;;;;11.88;2.80;;;;;;;12.18;100.00;101584.97;2616412;36;20141;-63
2021/08/17 00:44:21;;;;;;;10.65;2.40;;;;;;;12.11;100.00;101587.31;2615697;36;20037;-63
2021/08/17 00:46:52;;;;;;;17.02;2.85;;;;;;;12.11;100.00;101584.59;2616064;36;20650;-63
2021/08/17 00:49:20;;;;;;;11.80;2.70;;;;;;;12.13;100.00;101582.66;2615929;36;20598;-63
2021/08/17 00:51:50;;;;;;;10.45;2.67;;;;;;;12.09;100.00;101582.03;2616045;36;20081;-63
2021/08/17 00:54:18;;;;;;;7.72;2.97;;;;;;;12.07;100.00;101586.72;2615968;36;20118;-63
2021/08/17 00:56:46;;;;;;;14.45;3.20;;;;;;;12.11;100.00;101584.59;2615777;36;20138;-62
2021/08/17 00:59:15;;;;;;;9.52;2.67;;;;;;;12.14;100.00;101587.03;2616062;36;20162;-63
2021/08/17 01:01:44;;;;;;;10.95;3.05;;;;;;;12.12;100.00;101583.63;2615539;36;20023;-63
2021/08/17 01:04:14;;;;;;;10.82;2.63;;;;;;;12.07;100.00;101575.06;2616047;36;20122;-63
2021/08/17 01:06:43;;;;;;;19.98;2.90;;;;;;;12.03;100.00;101579.88;2615594;36;20114;-63
2021/08/17 01:09:11;;;;;;;11.75;2.80;;;;;;;12.02;100.00;101577.28;2615723;36;20651;-62
2021/08/17 01:11:44;;;;;;;12.32;3.15;;;;;;;12.00;100.00;101576.53;2616321;31;20528;-63
2021/08/17 01:14:12;;;;;;;11.38;3.08;;;;;;;11.95;100.00;101573.38;2615931;36;20133;-63
2021/08/17 01:16:41;;;;;;;15.18;3.05;;;;;;;12.07;100.00;101573.22;2615900;36;20118;-63
2021/08/17 01:19:09;;;;;;;10.18;2.95;;;;;;;12.07;100.00;101575.06;2615287;36;22470;-63
2021/08/17 01:21:40;;;;;;;10.30;2.70;;;;;;;12.02;100.00;101582.69;2616735;36;20411;-63
2021/08/17 01:24:08;;;;;;;9.75;2.80;;;;;;;11.94;100.00;101579.75;2615712;36;20126;-63
2021/08/17 01:26:39;;;;;;;9.77;2.90;;;;;;;11.87;100.00;101591.03;2616487;36;20162;-63
2021/08/17 01:29:10;;;;;;;10.75;2.83;;;;;;;11.84;100.00;101591.28;2616229;31;20614;-63
2021/08/17 01:31:39;;;;;;;11.80;2.50;;;;;;;11.85;100.00;101603.81;2616281;31;20158;-63
2021/08/17 01:34:07;;;;;;;12.73;2.75;;;;;;;11.92;100.00;101598.75;2615475;36;20122;-63
2021/08/17 01:36:36;;;;;;;9.90;3.22;;;;;;;11.97;100.00;101604.66;2616866;31;20126;-63
2021/08/17 01:39:04;;;;;;;14.07;3.00;;;;;;;11.91;100.00;101606.00;2617173;36;20054;-63
2021/08/17 01:41:33;;;;;;;9.30;2.87;;;;;;;11.87;100.00;101607.22;2616449;36;20030;-63
2021/08/17 01:44:06;;;;;;;15.48;3.17;;;;;;;11.85;100.00;101619.09;2616962;36;20422;-63
2021/08/17 01:46:34;;;;;;;14.85;2.80;;;;;;;11.81;100.00;101620.38;2616756;36;20118;-63
2021/08/17 01:49:03;;;;;;;10.63;2.70;;;;;;;11.78;100.00;101620.59;2617083;36;20030;-64
2021/08/17 01:51:31;;;;;;;13.52;2.67;;;;;;;11.77;100.00;101621.59;2616708;36;20174;-63
2021/08/17 01:53:59;;;;;;;9.63;2.08;;;;;;;11.68;100.00;101617.81;2616503;36;20030;-63
2021/08/17 01:56:27;;;;;;;16.77;2.70;;;;;;;11.76;100.00;101620.72;2617376;36;20085;-62
2021/08/17 01:58:55;;;;;;;13.02;2.58;;;;;;;11.73;100.00;101620.97;2616561;36;20138;-62
2021/08/17 02:01:26;;;;;;;8.80;2.65;;;;;;;11.71;100.00;101628.34;2616669;36;20129;-62
2021/08/17 02:03:55;;;;;;;9.27;2.55;;;;;;;11.69;100.00;101632.97;2616855;36;20077;-62
2021/08/17 02:06:23;;;;;;;11.43;2.60;;;;;;;11.64;100.00;101635.22;2616241;36;20089;-62
2021/08/17 02:08:51;;;;;;;8.85;2.38;;;;;;;11.65;100.00;101623.44;2616606;36;20077;-62
2021/08/17 02:11:19;;;;;;;12.50;3.40;;;;;;;11.66;100.00;101626.03;2617429;31;20495;-63
2021/08/17 02:13:48;;;;;;;10.00;2.13;;;;;;;11.69;100.00;101630.28;2616793;36;20081;-63
2021/08/17 02:16:16;;;;;;;11.70;2.67;;;;;;;11.67;100.00;101632.25;2616263;36;20956;-62
2021/08/17 02:18:47;;;;;;;11.18;2.97;;;;;;;11.65;100.00;101623.44;2616827;36;20045;-62
2021/08/17 02:21:15;;;;;;;10.70;2.67;;;;;;;11.63;100.00;101622.69;2615881;36;20105;-63
2021/08/17 02:23:43;;;;;;;7.90;2.35;;;;;;;11.60;100.00;101622.94;2616413;36;20162;-63
2021/08/17 02:26:11;;;;;;;12.55;2.80;;;;;;;11.52;100.00;101626.28;2616056;36;20143;-63
2021/08/17 02:28:39;;;;;;;8.80;2.30;;;;;;;11.44;100.00;101626.00;2616655;36;20153;-62
2021/08/17 02:31:08;;;;;;;10.13;2.95;;;;;;;11.40;100.00;101620.03;2615482;36;20072;-62
2021/08/17 02:33:36;;;;;;;10.30;2.70;;;;;;;11.41;100.00;101621.75;2615850;36;20038;-63
2021/08/17 02:36:07;;;;;;;12.32;3.13;;;;;;;11.43;100.00;101625.16;2616717;31;20038;-63
2021/08/17 02:38:35;;;;;;;9.10;2.30;;;;;;;11.53;100.00;101622.59;2616278;31;20045;-63
2021/08/17 02:41:04;;;;;;;11.43;2.75;;;;;;;11.53;100.00;101620.75;2616758;36;20118;-63
2021/08/17 02:43:32;;;;;;;11.85;2.80;;;;;;;11.53;100.00;101626.16;2616551;36;20142;-62
2021/08/17 02:46:00;;;;;;;13.23;3.10;;;;;;;11.55;100.00;101626.88;2617197;36;20407;-63
2021/08/17 02:48:28;;;;;;;10.45;3.10;;;;;;;11.66;100.00;101626.03;2615997;36;20030;-62
2021/08/17 02:50:56;;;;;;;9.73;2.95;;;;;;;11.73;100.00;101620.97;2616580;36;20121;-63
2021/08/17 02:53:27;;;;;;;8.43;2.35;;;;;;;11.72;100.00;101628.22;2615927;36;20039;-63
2021/08/17 02:55:55;;;;;;;10.73;3.15;;;;;;;11.71;100.00;101623.78;2615902;36;20551;-63
2021/08/17 02:58:24;;;;;;;15.18;3.40;;;;;;;11.69;100.00;101619.50;2616269;36;20137;-62
2021/08/17 03:00:52;;;;;;;11.73;2.90;;;;;;;11.64;100.00;101621.72;2616528;36;20538;-63
2021/08/17 03:03:20;;;;;;;11.55;2.58;;;;;;;11.63;100.00;101609.22;2616286;36;20115;-62
2021/08/17 03:05:48;;;;;;;9.35;3.13;;;;;;;11.57;100.00;101600.66;2615846;36;20129;-63
2021/08/17 03:08:16;;;;;;;15.77;3.40;;;;;;;11.52;100.00;101605.53;2616227;36;20137;-62
2021/08/17 03:10:47;;;;;;;11.68;2.95;;;;;;;11.52;100.00;101597.47;2615525;36;20110;-63
2021/08/17 03:13:15;;;;;;;14.25;3.40;;;;;;;11.50;100.00;101604.81;2616619;36;20570;-63
2021/08/17 03:15:43;;;;;;;16.30;3.67;;;;;;;11.52;100.00;101586.69;2615454;36;20118;-63
2021/08/17 03:18:12;;;;;;;13.23;3.05;;;;;;;11.53;100.00;101599.19;2616231;36;20064;-63
2021/08/17 03:20:40;;;;;;;17.30;3.63;;;;;;;11.50;100.00;101599.44;2614820;31;20041;-63
2021/08/17 03:23:13;;;;;;;16.02;3.45;;;;;;;11.50;100.00;101599.44;2615986;36;20034;-63
2021/08/17 03:25:42;;;;;;;15.38;3.38;;;;;;;11.48;100.00;101603.22;2615683;36;20022;-63
2021/08/17 03:28:12;;;;;;;10.20;3.10;;;;;;;11.47;100.00;101599.69;2615860;36;20118;-62
2021/08/17 03:30:41;;;;;;;18.00;3.22;;;;;;;11.55;100.00;101596.38;2616831;31;20764;-63
2021/08/17 03:33:09;;;;;;;9.23;3.10;;;;;;;11.55;100.00;101601.75;2616581;36;20030;-63
2021/08/17 03:35:37;;;;;;;14.07;3.47;;;;;;;11.58;100.00;101591.56;2616000;36;20022;-62
2021/08/17 03:38:06;;;;;;;14.02;3.33;;;;;;;11.61;100.00;101592.31;2616608;31;20555;-62
2021/08/17 03:40:34;;;;;;;13.33;3.33;;;;;;;11.61;100.00;101589.63;2616702;36;20479;-62
2021/08/17 03:43:02;;;;;;;8.82;2.42;;;;;;;11.63;100.00;101601.13;2615101;36;20030;-63
2021/08/17 03:45:33;;;;;;;9.18;3.05;;;;;;;11.63;100.00;101607.41;2615609;36;20122;-62
2021/08/17 03:48:02;;;;;;;9.82;3.05;;;;;;;11.60;100.00;101610.34;2615759;36;20125;-62
2021/08/17 03:50:30;;;;;;;8.73;3.10;;;;;;;11.54;100.00;101617.09;2615759;36;20031;-62
2021/08/17 03:52:58;;;;;;;10.32;3.10;;;;;;;11.48;100.00;101612.16;2615612;36;20422;-63
2021/08/17 03:55:27;;;;;;;13.35;2.97;;;;;;;11.52;100.00;101607.41;2615713;36;20031;-62
2021/08/17 03:57:55;;;;;;;10.33;3.23;;;;;;;11.51;100.00;101601.16;2615621;36;20038;-62
2021/08/17 04:00:27;;;;;;;12.57;3.93;;;;;;;11.52;100.00;101602.84;2615400;36;20118;-63
2021/08/17 04:02:58;;;;;;;13.65;3.50;;;;;;;11.49;100.00;101605.81;2615977;36;20540;-63
2021/08/17 04:05:27;;;;;;;9.30;3.13;;;;;;;11.46;100.00;101613.28;2615850;31;20124;-63
2021/08/17 04:07:56;;;;;;;7.85;3.00;;;;;;;11.53;100.00;101612.66;2615383;36;20142;-63
2021/08/17 04:10:25;;;;;;;8.65;3.35;;;;;;;11.50;100.00;101620.16;2616530;36;20464;-62
2021/08/17 04:12:53;;;;;;;8.60;3.00;;;;;;;11.55;100.00;101613.38;2615507;36;20026;-62
2021/08/17 04:15:21;;;;;;;7.07;2.85;;;;;;;11.60;100.00;101604.06;2615537;36;20137;-62
2021/08/17 04:17:49;;;;;;;13.23;3.72;;;;;;;11.64;100.00;101613.63;2615846;36;20085;-63
2021/08/17 04:20:20;;;;;;;9.35;3.25;;;;;;;11.67;100.00;101598.03;2615674;36;20061;-62
2021/08/17 04:22:48;;;;;;;9.18;3.42;;;;;;;11.75;100.00;101597.44;2616689;36;20518;-62
2021/08/17 04:25:17;;;;;;;14.68;3.70;;;;;;;11.80;100.00;101600.59;2616557;31;20525;-62
2021/08/17 04:27:45;;;;;;;10.90;3.60;;;;;;;11.80;100.00;101597.91;2615446;36;21679;-62
2021/08/17 04:30:14;;;;;;;13.03;3.57;;;;;;;11.82;100.00;101612.16;2616028;36;20522;-62
2021/08/17 04:32:43;;;;;;;9.38;3.50;;;;;;;11.84;100.00;101606.63;2615582;36;20163;-62
2021/08/17 04:35:11;;;;;;;8.48;3.47;;;;;;;11.89;100.00;101616.03;2615808;36;20030;-62
2021/08/17 04:37:42;;;;;;;11.65;3.55;;;;;;;11.98;100.00;101619.00;2615519;36;20077;-62
2021/08/17 04:40:12;;;;;;;9.90;3.60;;;;;;;12.00;100.00;101611.63;2616512;31;20117;-62
2021/08/17 04:42:40;;;;;;;7.43;3.63;;;;;;;11.96;100.00;101616.44;2616423;31;20129;-63
2021/08/17 04:45:09;;;;;;;13.50;3.80;;;;;;;12.04;100.00;101618.47;2616698;31;20504;-62
2021/08/17 04:47:45;;;;;;;10.07;3.90;;;;;;;12.00;100.00;101617.00;2616103;31;20538;-62
2021/08/17 04:50:14;;;;;;;12.45;4.25;;;;;;;12.02;100.00;101625.84;2615110;36;20034;-62
2021/08/17 04:52:45;;;;;;;12.47;3.73;;;;;;;12.01;100.00;101629.53;2616143;36;20122;-62
2021/08/17 04:55:13;;;;;;;12.52;3.83;;;;;;;12.02;100.00;101625.84;2616305;36;20427;-63
2021/08/17 04:57:52;;;;;;;12.07;4.00;;;;;;;12.00;100.00;101625.09;2616073;31;20496;-62
2021/08/17 05:00:22;;;;;;;10.68;3.67;;;;;;;11.95;100.00;101608.47;2614987;36;20042;-62
2021/08/17 05:02:50;;;;;;;11.50;3.38;;;;;;;11.92;100.00;101612.22;2615763;36;20635;-62
2021/08/17 05:05:19;;;;;;;9.30;3.60;;;;;;;11.97;100.00;101612.75;2616046;31;20162;-62
2021/08/17 05:07:51;;;;;;;12.33;4.13;;;;;;;12.01;100.00;101624.13;2616242;36;20106;-62
2021/08/17 05:10:21;;;;;;;9.77;3.58;;;;;;;12.03;100.00;101619.50;2613340;36;20307;-62
2021/08/17 05:12:50;;;;;;;11.82;4.28;;;;;;;12.09;100.00;101624.38;2615940;36;20118;-62
2021/08/17 05:15:18;;;;;;;8.88;3.80;;;;;;;12.12;100.00;101626.81;2616613;31;20106;-62
2021/08/17 05:17:46;;;;;;;13.00;4.15;;;;;;;12.15;100.00;101637.34;2616098;31;20113;-63
2021/08/17 05:20:15;;;;;;;10.65;4.47;;;;;;;12.15;100.00;101626.56;2617172;31;20034;-62
2021/08/17 05:22:43;;;;;;;12.50;4.45;;;;;;;12.12;100.00;101621.41;2616127;36;20632;-62
2021/08/17 05:25:15;;;;;;;13.70;4.63;;;;;;;12.19;100.00;101611.81;2616654;36;20030;-63
2021/08/17 05:27:44;;;;;;;8.77;4.03;;;;;;;12.22;100.00;101618.78;2615838;36;20130;-63
2021/08/17 05:30:13;;;;;;;7.65;3.35;;;;;;;12.27;100.00;101620.13;2616545;36;20121;-63
2021/08/17 05:32:41;;;;;;;8.27;4.00;;;;;;;12.33;100.00;101612.50;2616286;36;20125;-63
2021/08/17 05:35:10;;;;;;;10.80;4.10;;;;;;;12.40;100.00;101603.75;2616812;36;20072;-63
2021/08/17 05:37:38;;;;;;;8.95;3.85;;;;;;;12.43;100.00;101599.94;2615920;31;20034;-62
2021/08/17 05:40:09;;;;;;;7.35;4.18;;;;;;;12.44;100.00;101585.47;2616711;36;20146;-63
2021/08/17 05:42:40;;;;;;;13.70;3.97;;;;;;;12.51;100.00;101592.03;2616190;31;20118;-63
2021/08/17 05:45:09;;;;;;;10.20;4.18;;;;;;;12.57;100.00;101591.53;2615948;36;20122;-63
2021/08/17 05:47:43;;;;;;;12.77;4.45;;;;;;;12.66;100.00;101586.31;2616564;31;20034;-63
2021/08/17 05:50:13;;;;;;;11.75;4.25;;;;;;;12.72;100.00;101599.28;2616268;36;20030;-63
2021/08/17 05:52:41;;;;;;;12.57;5.13;;;;;;;12.80;100.00;101618.41;2616178;36;20027;-63
2021/08/17 05:55:11;;;;;;;12.68;4.55;;;;;;;12.85;100.00;101624.25;2616518;36;20110;-63
2021/08/17 05:57:42;;;;;;;9.10;4.18;;;;;;;12.89;100.00;101625.69;2615674;36;20081;-62
2021/08/17 06:00:13;;;;;;;16.70;4.68;;;;;;;12.90;100.00;101618.47;2615943;36;20076;-62
2021/08/17 06:02:41;;;;;;;11.35;4.70;;;;;;;12.90;100.00;101624.72;2616241;36;20023;-62
2021/08/17 06:05:10;;;;;;;13.90;5.35;;;;;;;12.96;100.00;101626.03;2616092;36;20054;-63
2021/08/17 06:07:39;;;;;;;13.45;5.50;;;;;;;13.07;100.00;101625.09;2614933;31;20089;-62
2021/08/17 06:10:09;;;;;;;10.90;4.97;;;;;;;13.22;100.00;101626.47;2616288;36;20030;-63
2021/08/17 06:12:37;;;;;;;11.30;5.50;;;;;;;13.27;100.00;101629.63;2615699;36;20855;-64
2021/08/17 06:15:09;;;;;;;11.10;4.90;;;;;;;13.27;100.00;101628.78;2616120;36;20073;-63
2021/08/17 06:17:38;;;;;;;10.45;4.88;;;;;;;13.30;100.00;101625.78;2616125;36;20063;-63
2021/08/17 06:20:07;;;;;;;11.67;5.33;;;;;;;13.39;100.00;101624.16;2614876;36;20092;-63
2021/08/17 06:22:36;;;;;;;13.23;5.20;;;;;;;13.46;100.00;101628.03;2616471;36;20414;-64
2021/08/17 06:25:05;;;;;;;16.15;5.95;;;;;;;13.40;100.00;101617.75;2615731;36;20100;-63
2021/08/17 06:27:36;;;;;;;16.38;5.70;;;;;;;13.47;100.00;101614.38;2615991;36;20069;-64
2021/08/17 06:30:08;;;;;;;15.88;6.03;;;;;;;13.55;100.00;101608.28;2615843;36;20201;-63
2021/08/17 06:32:36;;;;;;;14.27;5.97;;;;;;;13.76;100.00;101608.19;2616774;36;20034;-63
2021/08/17 06:35:05;;;;;;;11.25;6.32;;;;;;;13.92;100.00;101607.66;2615856;36;20060;-64
2021/08/17 06:37:33;;;;;;;13.68;6.20;;;;;;;14.07;100.00;101612.66;2616674;36;20569;-63
2021/08/17 06:40:01;;;;;;;12.15;6.35;;;;;;;14.19;100.00;101620.53;2615178;36;20130;-63
2021/08/17 06:42:30;;;;;;;14.77;7.25;;;;;;;14.31;100.00;101607.69;2616492;36;20085;-63
2021/08/17 06:44:58;;;;;;;12.27;6.07;;;;;;;14.43;100.00;101608.41;2615481;36;20045;-64
2021/08/17 06:47:29;;;;;;;16.80;6.30;;;;;;;14.52;100.00;101620.25;2616384;36;20042;-64
2021/08/17 06:49:57;;;;;;;14.57;7.10;;;;;;;14.62;100.00;101628.38;2615381;36;20042;-64
2021/08/17 06:52:25;;;;;;;16.80;6.63;;;;;;;14.65;100.00;101626.25;2615946;36;20039;-64
2021/08/17 06:54:54;;;;;;;14.75;6.63;;;;;;;14.79;100.00;101624.94;2615587;36;20122;-64
2021/08/17 06:57:22;;;;;;;19.20;7.00;;;;;;;14.76;100.00;101624.38;2615566;36;20122;-63
2021/08/17 06:59:50;;;;;;;13.05;6.78;;;;;;;14.73;100.00;101611.97;2615803;36;20035;-63
2021/08/17 07:02:19;;;;;;;14.02;7.43;;;;;;;14.73;100.00;101611.13;2615763;36;20130;-64
2021/08/17 07:04:49;;;;;;;14.00;7.10;;;;;;;14.85;100.00;101599.97;2615432;36;20046;-64
2021/08/17 07:07:18;;;;;;;16.55;7.38;;;;;;;14.92;100.00;101594.81;2616489;36;20046;-64
2021/08/17 07:09:46;;;;;;;16.52;7.00;;;;;;;14.99;100.00;101585.09;2615490;36;20065;-64
2021/08/17 07:12:14;;;;;;;13.88;6.97;;;;;;;15.04;100.00;101590.06;2615281;36;20145;-63
2021/08/17 07:14:43;;;;;;;14.88;7.38;;;;;;;15.28;100.00;101597.69;2615684;36;20026;-64
2021/08/17 07:17:11;;;;;;;15.27;7.72;;;;;;;15.50;100.00;101601.03;2615637;36;20134;-64
2021/08/17 07:19:39;;;;;;;19.85;7.70;;;;;;;15.76;100.00;101587.59;2615815;36;20162;-64
2021/08/17 07:22:10;;;;;;;15.57;7.00;;;;;;;15.92;100.00;101586.97;2615981;36;20062;-64
2021/08/17 07:24:38;;;;;;;20.38;8.15;;;;;;;16.06;100.00;101583.72;2615705;36;20130;-63
2021/08/17 07:27:07;;;;;;;16.92;7.07;;;;;;;16.42;100.00;101583.69;2615463;36;20046;-64
2021/08/17 07:29:35;;;;;;;16.30;7.40;;;;;;;16.62;100.00;101588.94;2615284;36;20659;-64
2021/08/17 07:32:03;;;;;;;16.08;7.10;;;;;;;16.39;100.00;101586.72;2616212;36;20030;-63
2021/08/17 07:34:31;;;;;;;16.85;7.57;;;;;;;15.93;100.00;101577.81;2615043;36;20038;-63
2021/08/17 07:37:00;;;;;;;14.00;7.32;;;;;;;16.21;100.00;101581.31;2616337;36;20435;-64
2021/08/17 07:39:31;;;;;;;17.20;7.90;;;;;;;16.64;100.00;101587.78;2615486;36;20153;-64
2021/08/17 07:41:59;;;;;;;14.55;8.45;;;;;;;16.32;100.00;101591.09;2616269;36;20077;-64
2021/08/17 07:44:27;;;;;;;16.88;7.60;;;;;;;16.47;100.00;101588.66;2614960;31;20114;-64
2021/08/17 07:46:56;;;;;;;17.88;8.18;;;;;;;16.29;100.00;101583.25;2616175;36;20031;-65
2021/08/17 07:49:24;;;;;;;20.37;7.57;;;;;;;16.10;100.00;101589.69;2615210;36;20173;-64
2021/08/17 07:51:52;;;;;;;19.33;8.18;;;;;;;16.03;100.00;101592.19;2616065;36;20046;-64
2021/08/17 07:54:21;;;;;;;16.33;7.53;;;;;;;16.00;100.00;101576.16;2615327;36;20547;-63
2021/08/17 07:56:53;;;;;;;15.60;8.57;;;;;;;16.02;100.00;101579.59;2615511;36;20027;-64
2021/08/17 07:59:21;;;;;;;20.95;8.60;;;;;;;16.19;100.00;101571.59;2615111;36;20035;-64
2021/08/17 08:01:49;;;;;;;20.47;9.00;;;;;;;16.16;100.00;101582.78;2616123;31;20480;-64
2021/08/17 08:04:18;;;;;;;17.58;9.40;;;;;;;16.09;100.00;101569.84;2615096;36;20383;-63
2021/08/17 08:06:46;;;;;;;20.20;8.85;;;;;;;16.22;100.00;101574.84;2615318;36;20118;-64
2021/08/17 08:09:14;;;;;;;20.50;9.97;;;;;;;16.13;100.00;101577.66;2615506;36;20041;-64
2021/08/17 08:11:43;;;;;;;29.45;9.60;;;;;;;16.15;100.00;101578.34;2613885;36;20042;-64
2021/08/17 08:14:13;;;;;;;17.52;9.48;;;;;;;16.29;100.00;101573.22;2614769;36;20117;-64
2021/08/17 08:16:42;;;;;;;17.95;8.55;;;;;;;16.20;100.00;101581.47;2615019;36;20069;-64
2021/08/17 08:19:10;;;;;;;18.55;9.02;;;;;;;16.26;100.00;101586.28;2615651;36;20022;-65
2021/08/17 08:21:39;;;;;;;17.57;9.40;;;;;;;16.39;100.00;101584.00;2616443;36;20046;-65
2021/08/17 08:24:07;;;;;;;19.30;9.47;;;;;;;16.63;100.00;101590.66;2615400;31;20033;-65
2021/08/17 08:26:35;;;;;;;19.38;9.02;;;;;;;16.68;100.00;101580.19;2616488;36;20114;-65
2021/08/17 08:29:03;;;;;;;17.73;9.07;;;;;;;16.63;100.00;101590.66;2615171;36;20041;-65
2021/08/17 08:31:34;;;;;;;18.47;8.83;;;;;;;16.54;100.00;101602.47;2615647;36;20674;-64
2021/08/17 08:34:03;;;;;;;21.52;9.48;;;;;;;16.59;100.00;101600.13;2615561;36;20173;-65
2021/08/17 08:36:31;;;;;;;20.90;8.97;;;;;;;16.79;100.00;101612.53;2615986;31;20030;-65
2021/08/17 08:38:59;;;;;;;19.25;9.13;;;;;;;16.77;100.00;101600.13;2616713;31;20487;-65
2021/08/17 08:41:28;;;;;;;18.40;9.43;;;;;;;16.96;100.00;101593.63;2615681;36;20049;-64
2021/08/17 08:43:56;;;;;;;16.67;8.18;;;;;;;17.19;100.00;101602.09;2615988;36;20082;-64
2021/08/17 08:46:24;;;;;;;17.70;9.13;;;;;;;17.12;100.00;101591.03;2615808;31;20561;-64
2021/08/17 08:48:56;;;;;;;21.43;9.00;;;;;;;17.28;100.00;101586.69;2615812;36;20034;-64
2021/08/17 08:51:24;;;;;;;18.38;9.02;;;;;;;17.24;100.00;101588.88;2615304;36;20599;-65
2021/08/17 08:53:53;;;;;;;17.17;8.60;;;;;;;17.43;100.00;101581.47;2615865;36;20070;-64
2021/08/17 08:56:21;;;;;;;15.02;8.63;;;;;;;17.48;100.00;101574.53;2615940;36;20539;-64
2021/08/17 08:58:49;;;;;;;17.33;8.53;;;;;;;17.47;100.00;101577.41;2615608;36;20046;-65
2021/08/17 09:01:22;;;;;;;20.35;9.05;;;;;;;17.40;100.00;101577.22;2616026;36;20061;-64
2021/08/17 09:03:56;;;;;;;18.90;8.85;;;;;;;17.13;100.00;101581.84;2615677;31;20626;-65
2021/08/17 09:06:26;;;;;;;16.20;7.88;;;;;;;17.07;100.00;101587.94;2614873;31;20061;-64
2021/08/17 09:09:08;;;;;;;21.95;8.75;;;;;;;17.37;100.00;101587.56;2616011;36;20042;-64
2021/08/17 09:11:39;;;;;;;18.48;8.20;;;;;;;17.10;100.00;101571.28;2615474;36;20121;-64
2021/08/17 09:14:22;;;;;;;12.95;7.25;;;;;;;17.08;100.00;101572.47;2615460;36;20022;-64
2021/08/17 09:16:53;;;;;;;15.68;7.15;;;;;;;17.28;100.00;101564.91;2615369;36;20077;-65
2021/08/17 09:19:32;;;;;;;13.80;7.15;;;;;;;17.34;100.00;101572.41;2615228;36;20030;-65
2021/08/17 09:22:03;;;;;;;17.08;7.72;;;;;;;17.36;100.00;101564.97;2615366;36;20118;-64
2021/08/17 09:24:34;;;;;;;15.90;7.22;;;;;;;17.28;100.00;101570.34;2614944;36;20052;-64
2021/08/17 09:27:04;;;;;;;13.45;6.35;;;;;;;17.10;100.00;101557.69;2615671;31;20126;-65
2021/08/17 09:29:36;;;;;;;12.50;7.40;;;;;;;17.33;100.00;101568.00;2613961;36;20114;-65
2021/08/17 09:32:15;;;;;;;10.38;6.80;;;;;;;17.38;100.00;101568.34;2614719;36;20090;-65
2021/08/17 09:34:47;;;;;;;12.82;6.97;;;;;;;17.29;100.00;101563.91;2615853;36;20450;-64
2021/08/17 09:37:16;;;;;;;12.73;6.78;;;;;;;17.33;100.00;101570.72;2616021;36;20027;-65
2021/08/17 09:39:47;;;;;;;13.52;6.50;;;;;;;17.33;100.00;101573.47;2615775;36;20614;-64
2021/08/17 09:42:21;;;;;;;16.52;6.65;;;;;;;17.04;100.00;101566.50;2614891;36;20034;-64
2021/08/17 09:45:03;;;;;;;13.52;6.53;;;;;;;16.86;100.00;101557.50;2615519;36;20030;-64
2021/08/17 09:47:32;;;;;;;13.38;6.10;;;;;;;16.81;100.00;101563.44;2615580;36;20034;-64
2021/08/17 09:50:23;;;;;;;13.95;6.32;;;;;;;16.92;100.00;101575.94;2613631;36;20073;-64
2021/08/17 09:52:52;;;;;;;11.60;6.15;;;;;;;17.04;100.00;101576.53;2615125;31;20542;-65
2021/08/17 09:55:23;;;;;;;10.82;5.93;;;;;;;16.91;100.00;101577.78;2615717;36;20122;-64
2021/08/17 09:57:52;;;;;;;13.82;5.95;;;;;;;16.81;100.00;101577.91;2616057;31;20049;-65
2021/08/17 10:00:20;;;;;;;12.50;5.95;;;;;;;16.77;100.00;101573.78;2615294;36;20174;-62
2021/08/17 10:02:50;;;;;;;15.82;6.38;;;;;;;16.89;100.00;101563.53;2616034;36;20081;-65
2021/08/17 10:05:21;;;;;;;13.18;6.55;;;;;;;16.89;100.00;101557.25;2615868;36;20076;-63
2021/08/17 10:07:49;;;;;;;26.98;6.05;;;;;;;16.83;100.00;101558.69;2617021;31;20059;-64
2021/08/17 10:10:18;;;;;;;13.67;5.90;;;;;;;16.88;100.00;101566.41;2615582;36;20026;-62
2021/08/17 10:12:46;;;;;;;13.18;5.55;;;;;;;17.10;100.00;101578.59;2615873;36;20539;-64
2021/08/17 10:15:14;;;;;;;10.98;4.95;;;;;;;17.50;100.00;101583.41;2615796;36;20114;-63
2021/08/17 10:17:43;;;;;;;12.25;5.18;;;;;;;17.37;100.00;101582.13;2615860;31;20483;-63
2021/08/17 10:20:12;;;;;;;9.65;4.93;;;;;;;17.39;100.00;101571.91;2613979;36;20525;-63
2021/08/17 10:22:43;;;;;;;11.50;5.95;;;;;;;17.39;100.00;101570.06;2615297;36;20559;-64
2021/08/17 10:25:17;;;;;;;10.13;5.07;;;;;;;17.20;100.00;101562.16;2615835;36;20419;-64
2021/08/17 10:27:46;;;;;;;10.38;5.00;;;;;;;17.29;100.00;101562.03;2615571;36;20567;-64
2021/08/17 10:30:20;;;;;;;10.93;5.30;;;;;;;17.23;100.00;101556.41;2615223;31;20023;-64
2021/08/17 10:32:57;;;;;;;12.45;5.65;;;;;;;17.26;100.00;101570.50;2615927;36;20435;-64
2021/08/17 11:21:02;;;;;;;10.68;4.90;;;;;;;16.81;100.00;101558.88;2614963;36;20165;-65
2021/08/17 11:23:33;;;;;;;10.60;5.18;;;;;;;16.69;100.00;101557.41;2615804;36;20023;-65
2021/08/17 11:26:09;;;;;;;10.23;5.23;;;;;;;16.26;100.00;101567.25;2616311;36;20160;-65
2021/08/17 11:28:38;;;;;;;12.93;5.60;;;;;;;16.23;100.00;101562.16;2616522;36;20046;-65
2021/08/17 11:31:06;;;;;;;12.75;5.57;;;;;;;16.20;100.00;101557.88;2615998;36;20110;-65
2021/08/17 11:33:34;;;;;;;11.93;5.57;;;;;;;16.33;100.00;101564.75;2613501;31;20626;-64
2021/08/17 11:36:26;;;;;;;9.20;5.55;;;;;;;16.25;100.00;101560.13;2614800;36;20076;-65
2021/08/17 11:38:54;;;;;;;12.32;5.35;;;;;;;16.01;100.00;101569.75;2615624;36;20114;-65
2021/08/17 11:41:31;;;;;;;10.00;5.18;;;;;;;15.94;100.00;101568.66;2616166;36;20034;-65
2021/08/17 11:44:11;;;;;;;11.35;6.10;;;;;;;15.74;100.00;101568.75;2615853;36;20077;-64
2021/08/17 11:46:39;;;;;;;13.93;6.07;;;;;;;15.79;100.00;101576.47;2615649;36;20026;-66
2021/08/17 11:49:24;;;;;;;10.48;5.88;;;;;;;16.00;100.00;101578.03;2616249;36;20547;-64
2021/08/17 11:52:07;;;;;;;13.50;6.43;;;;;;;16.24;100.00;101572.00;2616930;31;20522;-65
2021/08/17 11:54:41;;;;;;;13.43;6.82;;;;;;;16.07;100.00;101568.28;2614889;36;20516;-64
2021/08/17 11:57:10;;;;;;;12.30;6.20;;;;;;;15.95;100.00;101575.78;2614692;36;20114;-64
2021/08/17 11:59:43;;;;;;;10.53;6.13;;;;;;;15.92;100.00;101581.53;2615387;36;20030;-65
2021/08/17 12:02:13;;;;;;;10.50;6.13;;;;;;;15.94;100.00;101580.38;2615756;36;20543;-64
2021/08/17 12:04:50;;;;;;;10.50;6.00;;;;;;;15.85;100.00;101585.88;2615029;36;20134;-65
2021/08/17 12:07:21;;;;;;;11.02;5.68;;;;;;;15.79;100.00;101581.06;2615201;31;20144;-65